Terminal Aerodrome Forecast
Issued by NWS

Home | Current Version | Previous Version | Text Only | Print | Product List | Glossary On
Versions: 1 2 3 4 5 6 7 8 9 10 11 12 13 14 15 16
000
FTUS43 KMQT 041722
TAFSAW
TAF
KSAW 041722Z 0418/0518 05007KT P6SM SCT015 BKN035
      TEMPO 0418/0419 -SHRA BKN015
     FM042100 04007KT P6SM SCT035
     FM050200 VRB03KT P6SM FEW130=

USA.gov is the U.S. government's official web portal to all federal, state and local government web resources and services.